Řízení letového provozu České republiky  
Aktualizace dat:  25.04.2019 15:51:56 UTC English version
   METEO Zobrazení stránky:  25.04.2019 15:52:01 UTC  
vysvětlivky
METAR EDDB 251520Z 08004KT 020V120 CAVOK 26/03 Q1011 NOSIG=
METAR EDDC 251520Z 05010KT 030V090 CAVOK 24/02 Q1010 NOSIG=
METAR EDDE 251520Z 12009KT 090V150 CAVOK 25/04 Q1008 NOSIG=
METAR EDDF 251520Z 11010KT 080V150 CAVOK 26/03 Q1005 BECMG 24010KT=
METAR EDDM 251520Z 17012KT CAVOK 23/02 Q1009 NOSIG=
METAR EDDN 251520Z 13010KT 100V160 CAVOK 25/04 Q1007 NOSIG=
METAR EDDP 251520Z 10014KT 070V130 CAVOK 24/04 Q1009 NOSIG=
METAR EDDT 251520Z 20006KT 160V290 CAVOK 26/03 Q1011 NOSIG=
METAR EDQM 251520Z 14011KT 100V170 CAVOK 22/05 Q1010=
METAR EPBY 251530Z 13006KT 090V170 CAVOK 24/09 Q1012=
METAR EPGD 251530Z 14010KT CAVOK 23/10 Q1013=
METAR EPKK 251530Z 25006KT CAVOK 25/07 Q1013=
METAR EPKT 251530Z 24008KT CAVOK 25/08 Q1013=
METAR EPLL 251530Z 25006KT CAVOK 25/09 Q1012=
METAR EPPO 251530Z 09005KT 080V140 CAVOK 25/11 Q1012=
METAR EPRZ 251530Z 19013KT CAVOK 23/10 Q1015=
METAR EPWA 251530Z 14008KT 110V180 CAVOK 24/10 Q1013 NOSIG=
METAR EPWR 251530Z VRB03KT CAVOK 25/09 Q1012=
METAR LHBP 251530Z 20012G22KT 160V230 CAVOK 26/08 Q1015 NOSIG=
METAR LHSM 251515Z 19013KT CAVOK 24/10 Q1015 NOSIG=
METAR LKBC 251530Z AUTO 11012KT CAVOK 24/06 Q1009=
METAR LKCV 251500Z 14015KT 9999 SCT050 26/08 Q1011 RMK BLACK=
METAR LKKB 251500Z 10006KT CAVOK 24/08 Q1010 NOSIG RMK BLU BLU=
METAR LKKU 251400Z 18014KT CAVOK 25/08 Q1013=
METAR LKKV 251530Z 12012KT CAVOK 22/04 Q1011 RMK REG QNH 1007=
METAR LKLN 251530Z AUTO 13007KT 110V180 9999 25/05 Q1010=
METAR LKMT 251530Z 19010KT CAVOK 24/09 Q1013 NOSIG RMK REG QNH 1007=
METAR LKNA 251500Z 12014KT CAVOK 22/09 Q1013 NOSIG RMK BLU BLU=
METAR LKPD 251500Z 13012KT CAVOK 26/07 Q1011 NOSIG RMK BLU BLU=
METAR LKPJ 251500Z AUTO 15012KT 120V180 CAVOK 25/10 Q1013=
METAR LKPR 251530Z 10006KT 080V170 CAVOK 24/06 Q1010 NOSIG RMK REG QNH 1007=
METAR LKTB 251530Z 11014KT CAVOK 24/10 Q1012 NOSIG RMK REG QNH 1007=
METAR LKVO 251400Z 09007KT 040V140 CAVOK 24/08 Q1011=
METAR LOWI 251520Z 15018G34KT 100V200 9999 SCT080 BKN110 20/05 Q1011 NOSIG=
METAR LOWL 251520Z 10008KT 060V120 9999 FEW080 BKN300 26/07 Q1009 NOSIG=
METAR LOWS 251520Z 15011KT 9999 FEW060 BKN150 BKN300 24/03 Q1010 NOSIG=
METAR LOWW 251520Z 16016KT CAVOK 27/07 Q1010 NOSIG=
METAR LZIB 251530Z 16017KT CAVOK 25/09 Q1012 NOSIG=
METAR LZKZ 251530Z 20014KT CAVOK 23/09 Q1017 NOSIG=
METAR LZMC 251500Z 15012G22KT CAVOK 26/07 Q1013=
METAR LZPP 251530Z 15013KT 120V180 CAVOK 25/09 Q1013=
METAR LZSL 251530Z 15008KT 110V190 CAVOK 23/08 Q1016=
METAR LZTT 251530Z 23012KT 9999 FEW050 20/08 Q1017 NOSIG=
METAR LZZI 251530Z 23011KT 9999 FEW060 24/08 Q1014=